Terminal Aerodrome Forecast
Issued by NWS Portland, OR

Home | Current Version | Previous Version | Text Only | Print | Product List | Glossary On
Versions: 1 2 3 4 5 6 7 8 9 10 11 12 13 14 15
000
FTUS46 KPQR 050540
TAFTTD
TAF
KTTD 050540Z 0506/0606 VRB03KT P6SM OVC028
     FM051900 28009KT P6SM FEW030 SCT060 BKN120
     FM060300 28005KT P6SM FEW060 SCT120=

USA.gov is the U.S. government's official web portal to all federal, state and local government web resources and services.